Time;durP1;ratioP1;P1;durP2;ratioP2;P2;SDS_P1;SDS_P2;PMS_P1;PMS_P2;Temp;Humidity;BMP_temperature;BMP_pressure;BME280_temperature;BME280_humidity;BME280_pressure;Samples;Min_cycle;Max_cycle;Signal;HPM_P1;HPM_P2
2022/06/20 00:01:26;;;;;;;;;;;23.20;41.40;;;;;;5026464;28;19936;-65
2022/06/20 00:03:54;;;;;;;;;;;23.10;41.30;;;;;;5015993;28;19925;-66
2022/06/20 00:06:23;;;;;;;;;;;23.10;41.50;;;;;;5015716;28;19925;-65
2022/06/20 00:08:51;;;;;;;;;;;23.10;41.60;;;;;;5033297;28;19929;-65
2022/06/20 00:11:20;;;;;;;;;;;23.00;41.60;;;;;;5021295;28;19968;-65
2022/06/20 00:13:47;;;;;;;;;;;23.00;41.50;;;;;;5017284;28;19932;-65
2022/06/20 00:16:15;;;;;;;;;;;23.00;41.90;;;;;;5028910;28;20367;-66
2022/06/20 00:18:41;;;;;;;;;;;23.00;42.10;;;;;;5013881;28;19994;-65
2022/06/20 00:21:09;;;;;;;;;;;22.90;42.20;;;;;;5024874;28;19927;-65
2022/06/20 00:23:38;;;;;;;;;;;22.90;42.10;;;;;;5033553;28;19998;-65
2022/06/20 00:26:05;;;;;;;;;;;22.90;42.30;;;;;;5014990;28;19964;-65
2022/06/20 00:28:31;;;;;;;;;;;22.90;42.40;;;;;;5013717;28;20414;-65
2022/06/20 00:30:58;;;;;;;;;;;22.80;42.40;;;;;;5014799;28;20023;-65
2022/06/20 00:33:25;;;;;;;;;;;22.80;42.40;;;;;;5015891;28;19983;-65
2022/06/20 00:35:53;;;;;;;;;;;22.80;42.50;;;;;;5014200;28;20019;-66
2022/06/20 00:38:20;;;;;;;;;;;22.80;42.60;;;;;;5009480;28;19926;-65
2022/06/20 00:40:49;;;;;;;;;;;22.80;42.60;;;;;;5039697;28;19971;-65
2022/06/20 00:43:16;;;;;;;;;;;22.70;42.50;;;;;;5031779;28;19932;-65
2022/06/20 00:45:45;;;;;;;;;;;22.70;42.50;;;;;;5012748;28;20402;-66
2022/06/20 00:48:12;;;;;;;;;;;22.70;42.50;;;;;;5033727;28;19927;-65
2022/06/20 00:50:39;;;;;;;;;;;22.70;42.50;;;;;;5032116;28;19925;-65
2022/06/20 00:53:09;;;;;;;;;;;22.60;42.40;;;;;;5032262;28;19995;-64
2022/06/20 00:55:37;;;;;;;;;;;22.60;42.50;;;;;;5002956;28;19933;-64
2022/06/20 00:58:05;;;;;;;;;;;22.60;42.50;;;;;;5015468;28;20427;-65
2022/06/20 01:00:43;;;;;;;;;;;22.60;42.50;;;;;;5015170;28;20302;-64
2022/06/20 01:03:13;;;;;;;;;;;22.60;42.50;;;;;;5036837;28;19928;-65
2022/06/20 01:05:41;;;;;;;;;;;22.60;42.50;;;;;;5014998;28;19933;-65
2022/06/20 01:08:08;;;;;;;;;;;22.60;42.60;;;;;;5014952;28;20007;-65
2022/06/20 01:10:41;;;;;;;;;;;22.60;42.60;;;;;;5044569;28;19995;-65
2022/06/20 01:13:12;;;;;;;;;;;22.50;42.60;;;;;;5013377;28;20015;-65
2022/06/20 01:15:41;;;;;;;;;;;22.50;42.70;;;;;;5018868;28;20283;-65
2022/06/20 01:18:11;;;;;;;;;;;22.50;42.70;;;;;;5011725;28;20000;-65
2022/06/20 01:20:38;;;;;;;;;;;22.50;42.70;;;;;;5014994;28;19991;-65
2022/06/20 01:23:05;;;;;;;;;;;22.50;42.80;;;;;;5032222;28;19937;-65
2022/06/20 01:25:50;;;;;;;;;;;22.50;42.80;;;;;;5017917;28;20050;-65
2022/06/20 01:28:18;;;;;;;;;;;22.50;42.80;;;;;;5006279;28;19979;-65
2022/06/20 01:30:45;;;;;;;;;;;22.50;42.80;;;;;;5015381;28;19929;-65
2022/06/20 01:33:12;;;;;;;;;;;22.50;42.90;;;;;;5024009;28;19940;-66
2022/06/20 01:38:20;;;;;;;;;;;22.50;43.00;;;;;;5010744;28;19964;-65
2022/06/20 01:43:29;;;;;;;;;;;22.40;43.00;;;;;;5018701;28;20020;-65
2022/06/20 01:46:04;;;;;;;;;;;22.40;43.00;;;;;;5014041;28;20026;-66
2022/06/20 01:48:32;;;;;;;;;;;22.40;43.10;;;;;;5012056;28;19936;-64
2022/06/20 01:50:58;;;;;;;;;;;22.40;43.10;;;;;;5011159;28;19925;-65
2022/06/20 01:53:28;;;;;;;;;;;22.40;43.20;;;;;;5025665;28;19931;-66
2022/06/20 01:55:54;;;;;;;;;;;22.40;43.20;;;;;;5007997;28;19937;-65
2022/06/20 01:58:22;;;;;;;;;;;22.40;43.20;;;;;;5015090;28;19975;-65
2022/06/20 02:00:50;;;;;;;;;;;22.40;43.20;;;;;;5031805;28;19933;-66
2022/06/20 02:03:18;;;;;;;;;;;22.30;43.10;;;;;;5012610;28;20028;-67
2022/06/20 02:05:45;;;;;;;;;;;22.40;43.20;;;;;;5006673;28;19929;-66
2022/06/20 02:08:13;;;;;;;;;;;22.30;43.20;;;;;;5021742;28;19925;-66
2022/06/20 02:10:41;;;;;;;;;;;22.30;43.20;;;;;;5019782;28;19971;-65
2022/06/20 02:13:08;;;;;;;;;;;22.30;43.10;;;;;;5016939;28;19925;-65
2022/06/20 02:15:35;;;;;;;;;;;22.30;43.20;;;;;;5041140;28;19933;-66
2022/06/20 02:18:03;;;;;;;;;;;22.30;43.20;;;;;;5031158;28;19926;-65
2022/06/20 02:20:31;;;;;;;;;;;22.30;43.20;;;;;;5014525;28;19939;-65
2022/06/20 02:22:58;;;;;;;;;;;22.30;43.20;;;;;;5018369;28;19929;-65
2022/06/20 02:25:25;;;;;;;;;;;22.30;43.20;;;;;;5030675;28;19929;-65
2022/06/20 02:27:54;;;;;;;;;;;22.30;43.10;;;;;;5030918;28;19976;-65
2022/06/20 02:30:20;;;;;;;;;;;22.30;43.20;;;;;;5029556;28;19925;-65
2022/06/20 02:32:48;;;;;;;;;;;22.30;43.20;;;;;;5030605;28;19936;-65
2022/06/20 02:35:17;;;;;;;;;;;22.20;43.10;;;;;;5018091;28;19983;-65
2022/06/20 02:37:43;;;;;;;;;;;22.30;43.30;;;;;;5012244;28;19956;-66
2022/06/20 02:40:11;;;;;;;;;;;22.20;43.20;;;;;;5003606;28;20018;-66
2022/06/20 02:42:39;;;;;;;;;;;22.20;43.20;;;;;;5012020;28;19925;-66
2022/06/20 02:45:07;;;;;;;;;;;22.20;43.20;;;;;;5013075;28;20341;-65
2022/06/20 02:47:33;;;;;;;;;;;22.20;43.20;;;;;;5013051;28;20362;-65
2022/06/20 02:50:01;;;;;;;;;;;22.20;43.20;;;;;;5034626;28;19968;-65
2022/06/20 02:52:30;;;;;;;;;;;22.20;43.20;;;;;;5017551;28;20044;-65
2022/06/20 02:54:57;;;;;;;;;;;22.20;43.20;;;;;;5046354;28;19925;-64
2022/06/20 02:57:26;;;;;;;;;;;22.20;43.30;;;;;;5031133;28;19925;-64
2022/06/20 02:59:53;;;;;;;;;;;22.20;43.30;;;;;;5012905;28;20379;-65
2022/06/20 03:02:21;;;;;;;;;;;22.20;43.30;;;;;;5013581;28;20441;-65
2022/06/20 03:04:48;;;;;;;;;;;22.20;43.30;;;;;;5024800;28;19925;-65
2022/06/20 03:07:16;;;;;;;;;;;22.20;43.40;;;;;;5030086;28;19944;-64
2022/06/20 03:09:45;;;;;;;;;;;22.20;43.40;;;;;;5036328;28;19932;-65
2022/06/20 03:12:11;;;;;;;;;;;22.20;43.40;;;;;;5034627;28;19922;-65
2022/06/20 03:14:38;;;;;;;;;;;22.20;43.40;;;;;;5034852;28;20007;-64
2022/06/20 03:17:05;;;;;;;;;;;22.20;43.40;;;;;;5035420;28;19929;-65
2022/06/20 03:19:33;;;;;;;;;;;22.20;43.50;;;;;;5017106;28;19925;-65
2022/06/20 03:22:00;;;;;;;;;;;22.20;43.50;;;;;;5027511;28;20388;-64
2022/06/20 03:24:28;;;;;;;;;;;22.10;43.50;;;;;;5045297;28;19925;-66
2022/06/20 03:26:56;;;;;;;;;;;22.10;43.50;;;;;;5013112;28;19929;-65
2022/06/20 03:29:25;;;;;;;;;;;22.10;43.40;;;;;;5021840;28;19979;-65
2022/06/20 03:31:52;;;;;;;;;;;22.10;43.50;;;;;;5020438;28;20007;-65
2022/06/20 03:34:19;;;;;;;;;;;22.10;43.50;;;;;;4999152;28;19925;-65
2022/06/20 03:36:46;;;;;;;;;;;22.10;43.50;;;;;;5012761;28;20358;-64
2022/06/20 03:39:13;;;;;;;;;;;22.10;43.50;;;;;;5019056;28;20359;-64
2022/06/20 03:41:40;;;;;;;;;;;22.10;43.50;;;;;;5020022;28;19925;-64
2022/06/20 03:44:09;;;;;;;;;;;22.00;43.40;;;;;;5034013;28;19925;-65
2022/06/20 03:46:37;;;;;;;;;;;22.00;43.40;;;;;;5016003;28;19983;-65
2022/06/20 03:49:05;;;;;;;;;;;22.00;43.50;;;;;;5013790;28;19921;-65
2022/06/20 03:51:33;;;;;;;;;;;22.00;43.40;;;;;;5034040;28;19932;-65
2022/06/20 03:54:00;;;;;;;;;;;22.00;43.40;;;;;;5016447;28;19925;-64
2022/06/20 03:56:28;;;;;;;;;;;22.00;43.50;;;;;;5023562;28;20370;-64
2022/06/20 03:58:58;;;;;;;;;;;22.00;43.50;;;;;;5042321;28;20029;-65
2022/06/20 04:01:27;;;;;;;;;;;22.00;43.50;;;;;;5016353;28;19987;-65
2022/06/20 04:03:55;;;;;;;;;;;22.00;43.60;;;;;;5016779;28;19925;-65
2022/06/20 04:06:25;;;;;;;;;;;22.00;43.50;;;;;;5020600;28;19944;-66
2022/06/20 04:11:39;;;;;;;;;;;22.00;43.50;;;;;;5038665;28;19980;-65
2022/06/20 04:14:06;;;;;;;;;;;22.00;43.60;;;;;;5016680;28;19936;-65
2022/06/20 04:16:35;;;;;;;;;;;22.00;43.60;;;;;;5011678;28;19931;-66
2022/06/20 04:19:02;;;;;;;;;;;22.00;43.60;;;;;;5016377;28;20019;-64
2022/06/20 04:21:29;;;;;;;;;;;22.00;43.70;;;;;;5020627;28;19925;-64
2022/06/20 04:23:57;;;;;;;;;;;22.00;43.70;;;;;;5016240;28;20353;-64
2022/06/20 04:26:25;;;;;;;;;;;21.90;43.60;;;;;;5019800;28;19925;-64
2022/06/20 04:28:53;;;;;;;;;;;21.90;43.70;;;;;;5037377;28;19932;-64
2022/06/20 04:31:21;;;;;;;;;;;21.90;43.70;;;;;;5027995;28;19925;-64
2022/06/20 04:33:50;;;;;;;;;;;21.90;43.70;;;;;;5014880;28;19951;-64
2022/06/20 04:36:30;;;;;;;;;;;21.90;43.70;;;;;;5015444;28;19929;-64
2022/06/20 04:38:58;;;;;;;;;;;21.90;43.70;;;;;;5016111;28;19932;-63
2022/06/20 04:41:28;;;;;;;;;;;21.90;43.70;;;;;;5032780;28;20040;-66
2022/06/20 04:43:56;;;;;;;;;;;21.90;43.70;;;;;;5034548;28;19925;-66
2022/06/20 04:46:24;;;;;;;;;;;21.90;43.70;;;;;;5030938;28;19933;-66
2022/06/20 04:48:52;;;;;;;;;;;21.90;43.80;;;;;;5022407;28;19932;-66
2022/06/20 04:51:20;;;;;;;;;;;21.90;43.80;;;;;;5033840;28;19933;-66
2022/06/20 04:53:47;;;;;;;;;;;21.90;43.80;;;;;;5028473;28;19936;-66
2022/06/20 04:56:15;;;;;;;;;;;21.90;43.80;;;;;;5037210;28;19925;-66
2022/06/20 04:58:43;;;;;;;;;;;21.90;43.80;;;;;;5033412;28;19929;-66
2022/06/20 05:01:10;;;;;;;;;;;21.90;43.80;;;;;;5024535;28;19925;-66
2022/06/20 05:03:37;;;;;;;;;;;21.90;43.80;;;;;;5020618;28;20278;-69
2022/06/20 05:06:05;;;;;;;;;;;21.90;43.80;;;;;;5024125;28;19925;-63
2022/06/20 05:08:33;;;;;;;;;;;21.90;43.80;;;;;;5018548;28;19925;-64
2022/06/20 05:11:00;;;;;;;;;;;21.90;43.90;;;;;;5015501;28;20439;-64
2022/06/20 05:13:29;;;;;;;;;;;21.90;43.80;;;;;;5024105;28;19971;-64
2022/06/20 05:15:56;;;;;;;;;;;21.90;43.80;;;;;;5042949;28;19928;-64
2022/06/20 05:18:24;;;;;;;;;;;21.80;43.80;;;;;;5041362;28;19932;-64
2022/06/20 05:20:51;;;;;;;;;;;21.80;43.80;;;;;;5013339;28;20340;-64
2022/06/20 05:23:21;;;;;;;;;;;21.80;43.80;;;;;;5013450;28;19975;-64
2022/06/20 05:25:48;;;;;;;;;;;21.80;43.90;;;;;;5013295;28;19948;-64
2022/06/20 05:28:17;;;;;;;;;;;21.80;43.80;;;;;;5014687;28;20314;-64
2022/06/20 05:30:44;;;;;;;;;;;21.80;43.80;;;;;;5032715;28;19932;-64
2022/06/20 05:33:13;;;;;;;;;;;21.80;43.90;;;;;;5015342;28;19925;-64
2022/06/20 05:35:40;;;;;;;;;;;21.80;43.80;;;;;;5014320;28;19979;-64
2022/06/20 05:38:11;;;;;;;;;;;21.80;43.90;;;;;;5020074;28;20354;-64
2022/06/20 05:40:40;;;;;;;;;;;21.80;43.90;;;;;;5007304;28;20341;-64
2022/06/20 05:43:09;;;;;;;;;;;21.80;43.90;;;;;;5022149;28;19987;-64
2022/06/20 05:45:38;;;;;;;;;;;21.80;43.90;;;;;;5031245;28;20038;-64
2022/06/20 05:48:05;;;;;;;;;;;21.80;43.90;;;;;;5031148;28;19925;-64
2022/06/20 05:50:35;;;;;;;;;;;21.80;43.90;;;;;;5000031;28;19972;-64
2022/06/20 05:53:02;;;;;;;;;;;21.80;43.90;;;;;;5026201;28;19929;-64
2022/06/20 05:55:31;;;;;;;;;;;21.80;43.90;;;;;;5014783;28;19932;-64
2022/06/20 05:58:00;;;;;;;;;;;21.80;43.90;;;;;;5014227;28;20341;-64
2022/06/20 06:00:28;;;;;;;;;;;21.80;44.50;;;;;;5010652;28;20465;-64
2022/06/20 06:02:55;;;;;;;;;;;21.80;44.00;;;;;;5033884;28;19979;-64
2022/06/20 06:05:22;;;;;;;;;;;21.80;44.00;;;;;;5012702;28;19979;-64
2022/06/20 06:07:50;;;;;;;;;;;21.80;44.00;;;;;;5016152;28;19929;-64
2022/06/20 06:10:22;;;;;;;;;;;21.80;44.00;;;;;;5014591;28;19929;-64
2022/06/20 06:12:50;;;;;;;;;;;21.80;44.00;;;;;;5032077;28;19925;-64
2022/06/20 06:15:26;;;;;;;;;;;21.80;44.00;;;;;;5012695;28;20028;-64
2022/06/20 06:17:53;;;;;;;;;;;21.80;44.10;;;;;;5008361;28;20361;-64
2022/06/20 06:20:20;;;;;;;;;;;21.80;44.10;;;;;;5030163;28;20657;-64
2022/06/20 06:22:48;;;;;;;;;;;21.80;44.20;;;;;;5012950;28;19941;-64
2022/06/20 06:25:23;;;;;;;;;;;21.70;44.10;;;;;;5012660;28;20004;-64
2022/06/20 06:27:51;;;;;;;;;;;21.70;44.20;;;;;;5013241;28;19925;-64
2022/06/20 06:30:20;;;;;;;;;;;21.70;44.20;;;;;;5010625;28;19925;-64
2022/06/20 06:32:48;;;;;;;;;;;21.70;44.20;;;;;;5028337;28;19933;-64
2022/06/20 06:35:16;;;;;;;;;;;21.70;44.30;;;;;;5036648;28;19926;-64
2022/06/20 06:37:43;;;;;;;;;;;21.70;44.30;;;;;;5019151;28;20351;-64
2022/06/20 06:40:11;;;;;;;;;;;21.70;44.30;;;;;;5016088;28;19929;-64
2022/06/20 06:42:38;;;;;;;;;;;21.70;44.20;;;;;;5006717;28;19931;-64
2022/06/20 06:45:06;;;;;;;;;;;21.70;44.30;;;;;;5035106;28;19971;-64
2022/06/20 06:47:35;;;;;;;;;;;21.70;44.20;;;;;;5018690;28;20004;-64
2022/06/20 06:50:03;;;;;;;;;;;21.70;44.20;;;;;;5017098;28;19926;-64
2022/06/20 06:52:31;;;;;;;;;;;21.70;44.30;;;;;;5010382;28;19926;-63
2022/06/20 06:54:58;;;;;;;;;;;21.70;44.40;;;;;;5024458;28;19936;-64
2022/06/20 06:57:26;;;;;;;;;;;21.60;44.30;;;;;;5034597;28;19932;-64
2022/06/20 06:59:54;;;;;;;;;;;21.60;44.30;;;;;;5018053;28;19952;-65
2022/06/20 07:02:22;;;;;;;;;;;21.60;44.20;;;;;;5013289;28;19987;-64
2022/06/20 07:04:52;;;;;;;;;;;21.60;44.20;;;;;;5027594;28;19932;-64
2022/06/20 07:07:20;;;;;;;;;;;21.60;44.20;;;;;;5016065;28;19956;-64
2022/06/20 07:09:48;;;;;;;;;;;21.60;44.20;;;;;;5036120;28;20007;-62
2022/06/20 07:12:16;;;;;;;;;;;21.60;44.20;;;;;;5002685;28;19925;-63
2022/06/20 07:14:43;;;;;;;;;;;21.60;44.30;;;;;;5008566;28;19933;-64
2022/06/20 07:17:11;;;;;;;;;;;21.60;44.40;;;;;;5007565;28;19925;-64
2022/06/20 07:19:40;;;;;;;;;;;21.60;44.50;;;;;;5027463;28;19956;-62
2022/06/20 07:22:09;;;;;;;;;;;21.60;44.00;;;;;;5011119;28;20611;-63
2022/06/20 07:24:36;;;;;;;;;;;21.60;44.50;;;;;;5013284;28;19925;-63
2022/06/20 07:27:06;;;;;;;;;;;21.60;44.50;;;;;;5032346;28;19928;-62
2022/06/20 07:29:33;;;;;;;;;;;21.60;44.50;;;;;;5035660;28;20330;-62
2022/06/20 07:32:01;;;;;;;;;;;21.60;44.50;;;;;;5009977;28;20337;-61
2022/06/20 07:34:30;;;;;;;;;;;21.60;44.50;;;;;;5030411;28;20374;-62
2022/06/20 07:36:57;;;;;;;;;;;21.60;44.50;;;;;;5007674;28;19964;-62
2022/06/20 07:39:26;;;;;;;;;;;21.60;44.50;;;;;;5022530;28;19929;-63
2022/06/20 07:41:54;;;;;;;;;;;21.60;44.40;;;;;;5000255;28;19929;-62
2022/06/20 07:44:22;;;;;;;;;;;21.70;44.40;;;;;;5023733;28;19931;-61
2022/06/20 07:46:51;;;;;;;;;;;21.70;44.40;;;;;;5008450;28;19940;-61
2022/06/20 07:49:18;;;;;;;;;;;21.70;44.30;;;;;;5008685;28;19954;-62
2022/06/20 07:51:46;;;;;;;;;;;21.70;44.20;;;;;;5002192;28;19979;-61
2022/06/20 07:54:14;;;;;;;;;;;21.70;44.20;;;;;;5027832;28;20361;-62
2022/06/20 07:56:44;;;;;;;;;;;21.70;44.10;;;;;;5019201;28;19964;-62
2022/06/20 07:59:12;;;;;;;;;;;21.70;44.00;;;;;;5010831;28;20434;-62
2022/06/20 08:01:42;;;;;;;;;;;21.70;43.90;;;;;;5026410;28;19975;-63
2022/06/20 08:04:09;;;;;;;;;;;21.70;43.70;;;;;;5018708;28;19933;-62
2022/06/20 08:06:36;;;;;;;;;;;21.70;43.60;;;;;;5011521;28;19932;-63
2022/06/20 08:09:06;;;;;;;;;;;21.70;43.50;;;;;;5013298;28;19933;-63
2022/06/20 08:11:43;;;;;;;;;;;21.70;43.40;;;;;;5009045;28;19926;-65
2022/06/20 08:14:15;;;;;;;;;;;21.70;43.40;;;;;;5021986;28;19932;-62
2022/06/20 08:16:42;;;;;;;;;;;21.70;43.30;;;;;;5021555;28;19964;-63
2022/06/20 08:19:08;;;;;;;;;;;21.70;43.30;;;;;;5010849;28;20251;-62
2022/06/20 08:21:36;;;;;;;;;;;21.70;43.10;;;;;;5005830;28;20390;-63
2022/06/20 08:24:03;;;;;;;;;;;21.70;43.00;;;;;;5011349;28;19929;-64
2022/06/20 08:26:32;;;;;;;;;;;21.70;42.90;;;;;;4999637;28;19929;-64
2022/06/20 08:28:59;;;;;;;;;;;21.70;42.90;;;;;;5027571;28;19950;-62
2022/06/20 08:31:29;;;;;;;;;;;21.70;42.90;;;;;;5026198;28;19925;-62
2022/06/20 08:33:58;;;;;;;;;;;21.80;42.90;;;;;;5020951;28;20216;-63
2022/06/20 08:36:27;;;;;;;;;;;21.70;42.60;;;;;;5028399;28;20015;-63
2022/06/20 08:38:56;;;;;;;;;;;21.80;42.70;;;;;;5020539;28;19948;-62
2022/06/20 08:41:26;;;;;;;;;;;21.70;42.50;;;;;;5003007;28;19953;-62
2022/06/20 08:44:20;;;;;;;;;;;21.70;42.40;;;;;;5026490;28;19929;-62
2022/06/20 08:47:08;;;;;;;;;;;21.70;42.30;;;;;;4961824;28;19933;-63
2022/06/20 08:49:51;;;;;;;;;;;21.70;42.30;;;;;;5019020;28;19925;-64
2022/06/20 08:52:30;;;;;;;;;;;21.70;42.20;;;;;;5022703;28;20367;-64
2022/06/20 08:55:07;;;;;;;;;;;21.70;42.20;;;;;;5009314;28;19965;-64
2022/06/20 08:57:36;;;;;;;;;;;21.70;42.20;;;;;;5027913;28;20005;-64
2022/06/20 09:00:05;;;;;;;;;;;21.70;42.30;;;;;;5025915;28;20020;-63
2022/06/20 09:02:40;;;;;;;;;;;21.70;42.40;;;;;;5029097;28;19979;-63
2022/06/20 09:05:21;;;;;;;;;;;21.80;42.60;;;;;;5010694;28;19933;-63
2022/06/20 09:07:54;;;;;;;;;;;21.70;42.70;;;;;;5015144;28;19933;-63
2022/06/20 09:10:33;;;;;;;;;;;21.80;42.90;;;;;;5010169;28;19971;-65
2022/06/20 09:13:15;;;;;;;;;;;21.80;43.10;;;;;;5004838;28;20267;-63
2022/06/20 09:15:45;;;;;;;;;;;21.80;43.20;;;;;;5027112;28;19960;-63
2022/06/20 09:18:14;;;;;;;;;;;21.80;43.40;;;;;;5023045;28;19956;-63
2022/06/20 09:20:42;;;;;;;;;;;21.80;43.50;;;;;;5000699;28;19933;-63
2022/06/20 09:23:12;;;;;;;;;;;21.80;43.60;;;;;;5036653;28;19929;-64
2022/06/20 09:25:41;;;;;;;;;;;21.80;43.60;;;;;;5019647;28;20038;-65
2022/06/20 09:28:12;;;;;;;;;;;21.80;43.80;;;;;;4992326;28;20438;-60
2022/06/20 09:30:41;;;;;;;;;;;21.80;43.80;;;;;;5006678;28;19943;-62
2022/06/20 09:33:17;;;;;;;;;;;21.90;43.90;;;;;;5008452;28;19937;-62
2022/06/20 09:36:02;;;;;;;;;;;21.90;44.30;;;;;;5003641;28;19932;-67
2022/06/20 09:38:35;;;;;;;;;;;21.90;44.40;;;;;;4955498;28;19952;-62
2022/06/20 09:41:02;;;;;;;;;;;21.90;44.40;;;;;;5023373;28;19936;-62
2022/06/20 09:43:35;;;;;;;;;;;21.90;44.40;;;;;;5027110;28;19937;-62
2022/06/20 09:46:03;;;;;;;;;;;21.90;44.30;;;;;;5003119;28;19972;-63
2022/06/20 09:48:34;;;;;;;;;;;21.90;44.30;;;;;;5007126;28;19933;-63
2022/06/20 09:51:01;;;;;;;;;;;21.90;44.30;;;;;;5004784;28;19936;-62
2022/06/20 09:53:36;;;;;;;;;;;21.90;44.30;;;;;;5007461;28;19933;-65
2022/06/20 09:56:05;;;;;;;;;;;21.90;44.20;;;;;;5024034;28;19929;-63
2022/06/20 09:58:35;;;;;;;;;;;21.90;44.20;;;;;;5009104;28;19968;-63
2022/06/20 10:01:02;;;;;;;;;;;21.90;44.20;;;;;;5022435;28;19953;-59
2022/06/20 10:03:33;;;;;;;;;;;21.90;44.10;;;;;;5026169;28;19988;-63
2022/06/20 10:06:02;;;;;;;;;;;21.90;44.00;;;;;;5011360;28;19937;-64
2022/06/20 10:08:30;;;;;;;;;;;21.90;44.00;;;;;;5004433;28;20294;-63
2022/06/20 10:11:00;;;;;;;;;;;21.90;43.90;;;;;;5008272;28;19974;-63
2022/06/20 10:13:29;;;;;;;;;;;21.90;43.80;;;;;;5035001;28;20074;-63
2022/06/20 10:15:59;;;;;;;;;;;21.90;44.30;;;;;;5006015;28;20370;-62
2022/06/20 10:18:28;;;;;;;;;;;21.90;43.70;;;;;;5006405;28;19925;-63
2022/06/20 10:20:57;;;;;;;;;;;21.90;43.50;;;;;;5023854;28;20100;-63
2022/06/20 10:23:34;;;;;;;;;;;21.90;43.40;;;;;;5010176;28;19972;-64
2022/06/20 10:26:06;;;;;;;;;;;21.90;43.30;;;;;;5006368;28;20614;-65
2022/06/20 10:28:34;;;;;;;;;;;21.80;43.20;;;;;;5024658;28;19929;-63
2022/06/20 10:31:05;;;;;;;;;;;21.80;43.10;;;;;;5033626;28;19984;-63
2022/06/20 10:33:34;;;;;;;;;;;21.80;43.10;;;;;;5027338;28;19925;-63
2022/06/20 10:36:13;;;;;;;;;;;21.80;43.00;;;;;;5026258;28;20028;-63
2022/06/20 10:38:41;;;;;;;;;;;21.80;43.10;;;;;;5023352;28;19972;-63
2022/06/20 10:41:10;;;;;;;;;;;21.80;43.10;;;;;;5041256;28;19936;-63
2022/06/20 10:43:42;;;;;;;;;;;21.80;43.10;;;;;;5007246;28;19951;-56
2022/06/20 10:46:09;;;;;;;;;;;21.80;43.00;;;;;;5028077;28;20267;-59
2022/06/20 10:48:55;;;;;;;;;;;21.80;42.80;;;;;;5008598;28;19968;-58
2022/06/20 10:51:24;;;;;;;;;;;21.80;42.80;;;;;;5007580;28;19929;-59
2022/06/20 10:53:55;;;;;;;;;;;21.80;42.60;;;;;;4998751;28;19967;-60
2022/06/20 10:56:24;;;;;;;;;;;21.80;42.50;;;;;;5004548;28;19929;-60
2022/06/20 10:58:56;;;;;;;;;;;21.80;42.40;;;;;;5023366;28;19960;-58
2022/06/20 11:01:24;;;;;;;;;;;21.80;42.50;;;;;;5018027;28;19932;-59
2022/06/20 11:04:04;;;;;;;;;;;21.80;42.60;;;;;;5008446;28;20367;-60
2022/06/20 11:06:35;;;;;;;;;;;21.80;42.60;;;;;;5025706;28;20346;-59
2022/06/20 11:09:03;;;;;;;;;;;21.80;42.60;;;;;;5009262;28;20599;-61
2022/06/20 11:11:34;;;;;;;;;;;21.80;42.60;;;;;;5009519;28;19994;-58
2022/06/20 11:14:02;;;;;;;;;;;21.80;42.80;;;;;;5007623;28;19932;-59
2022/06/20 11:16:32;;;;;;;;;;;21.80;42.60;;;;;;5006998;28;19961;-60
2022/06/20 11:19:03;;;;;;;;;;;21.80;42.60;;;;;;5016414;28;19929;-60
2022/06/20 11:21:32;;;;;;;;;;;21.80;42.60;;;;;;5000721;28;20000;-60
2022/06/20 11:24:02;;;;;;;;;;;21.80;42.50;;;;;;5005796;28;19956;-60
2022/06/20 11:26:31;;;;;;;;;;;21.80;42.70;;;;;;5028475;28;20439;-59
2022/06/20 11:29:12;;;;;;;;;;;21.90;42.60;;;;;;5007885;28;19933;-63
2022/06/20 11:31:42;;;;;;;;;;;21.90;42.60;;;;;;5044106;28;19929;-63
2022/06/20 11:34:24;;;;;;;;;;;21.90;42.40;;;;;;5011430;28;19998;-64
2022/06/20 11:36:54;;;;;;;;;;;21.90;42.30;;;;;;5002391;28;20388;-63
2022/06/20 11:39:25;;;;;;;;;;;21.90;42.20;;;;;;5008920;28;19957;-63
2022/06/20 11:41:53;;;;;;;;;;;21.90;42.20;;;;;;5010861;28;19930;-63
2022/06/20 11:44:31;;;;;;;;;;;21.90;42.20;;;;;;5024178;28;20398;-63
2022/06/20 11:47:10;;;;;;;;;;;21.90;42.20;;;;;;5026926;28;19929;-63
2022/06/20 11:49:42;;;;;;;;;;;21.90;42.20;;;;;;5022630;28;19979;-63
2022/06/20 11:52:09;;;;;;;;;;;21.90;42.20;;;;;;5006468;28;20367;-63
2022/06/20 11:54:38;;;;;;;;;;;21.80;42.10;;;;;;5007410;28;19932;-63
2022/06/20 11:57:08;;;;;;;;;;;21.80;42.00;;;;;;5026522;28;20318;-62
2022/06/20 11:59:39;;;;;;;;;;;21.90;42.00;;;;;;5006105;28;20012;-63
2022/06/20 12:02:12;;;;;;;;;;;21.90;41.90;;;;;;5011849;28;20028;-64
2022/06/20 12:04:40;;;;;;;;;;;21.80;41.60;;;;;;5045749;28;19960;-63
2022/06/20 12:07:08;;;;;;;;;;;21.90;41.60;;;;;;5010418;28;20307;-62
2022/06/20 12:09:37;;;;;;;;;;;21.90;41.50;;;;;;5006929;28;20549;-61
2022/06/20 12:12:07;;;;;;;;;;;21.80;41.40;;;;;;5014920;28;19925;-61
2022/06/20 12:14:38;;;;;;;;;;;21.80;41.30;;;;;;5007685;28;19935;-61
2022/06/20 12:17:09;;;;;;;;;;;21.80;41.20;;;;;;5008674;28;19933;-64
2022/06/20 12:25:19;;;;;;;;;;;21.80;41.20;;;;;;5024894;28;19925;-64
2022/06/20 12:27:46;;;;;;;;;;;21.80;41.20;;;;;;5028037;28;19987;-65
2022/06/20 12:30:15;;;;;;;;;;;21.80;41.20;;;;;;5008378;28;19951;-65
2022/06/20 12:32:43;;;;;;;;;;;21.80;41.30;;;;;;5009816;28;19944;-65
2022/06/20 12:35:12;;;;;;;;;;;21.80;41.30;;;;;;5029105;28;19925;-64
2022/06/20 12:37:40;;;;;;;;;;;21.80;41.30;;;;;;5028450;28;19969;-63
2022/06/20 12:40:07;;;;;;;;;;;21.80;41.30;;;;;;5007355;28;19983;-63
2022/06/20 12:42:38;;;;;;;;;;;21.80;41.10;;;;;;5007550;28;19948;-62
2022/06/20 12:45:15;;;;;;;;;;;21.80;41.10;;;;;;5010267;28;19948;-64
2022/06/20 12:47:56;;;;;;;;;;;21.80;40.90;;;;;;5023368;28;20021;-64
2022/06/20 12:50:24;;;;;;;;;;;21.80;41.10;;;;;;5026503;28;19925;-63
2022/06/20 12:52:59;;;;;;;;;;;21.80;41.00;;;;;;5010877;28;20003;-63
2022/06/20 12:55:33;;;;;;;;;;;21.80;41.10;;;;;;5006497;28;19937;-64
2022/06/20 12:58:04;;;;;;;;;;;21.80;41.10;;;;;;5008981;28;20428;-64
2022/06/20 13:00:36;;;;;;;;;;;21.80;41.10;;;;;;5021350;28;19979;-63
2022/06/20 13:03:22;;;;;;;;;;;21.80;41.00;;;;;;5005391;28;20091;-65
2022/06/20 13:05:55;;;;;;;;;;;21.80;41.00;;;;;;5018723;28;19961;-63
2022/06/20 13:08:26;;;;;;;;;;;21.80;41.10;;;;;;5005891;28;20373;-62
2022/06/20 13:10:57;;;;;;;;;;;21.80;41.10;;;;;;5027651;28;20319;-62
2022/06/20 13:13:33;;;;;;;;;;;21.80;41.00;;;;;;5010373;28;19925;-62
2022/06/20 13:16:01;;;;;;;;;;;21.80;41.00;;;;;;5028129;28;20315;-63
2022/06/20 13:18:39;;;;;;;;;;;21.80;41.00;;;;;;5027590;28;19940;-64
2022/06/20 13:21:08;;;;;;;;;;;21.80;41.00;;;;;;5006710;28;19948;-65
2022/06/20 13:23:47;;;;;;;;;;;21.80;41.10;;;;;;5006122;28;19941;-64
2022/06/20 13:26:15;;;;;;;;;;;21.80;41.20;;;;;;5016578;28;19925;-63
2022/06/20 13:28:44;;;;;;;;;;;21.80;41.10;;;;;;5010279;28;19936;-59
2022/06/20 13:31:14;;;;;;;;;;;21.80;41.10;;;;;;5011075;28;19940;-60
2022/06/20 13:33:44;;;;;;;;;;;21.80;41.10;;;;;;5023419;28;19937;-60
2022/06/20 13:36:17;;;;;;;;;;;21.80;41.10;;;;;;5008153;28;19935;-62
2022/06/20 13:38:45;;;;;;;;;;;21.80;41.00;;;;;;5016509;28;19925;-63
2022/06/20 13:41:14;;;;;;;;;;;21.80;40.90;;;;;;5009671;28;19929;-63
2022/06/20 13:43:50;;;;;;;;;;;21.80;40.90;;;;;;5026956;28;20016;-64
2022/06/20 13:46:19;;;;;;;;;;;21.80;40.90;;;;;;5007926;28;20379;-63
2022/06/20 13:48:48;;;;;;;;;;;21.80;41.00;;;;;;5011260;28;20043;-65
2022/06/20 13:51:17;;;;;;;;;;;21.80;41.10;;;;;;5036536;28;20029;-63
2022/06/20 13:53:45;;;;;;;;;;;21.80;41.20;;;;;;5040593;28;19979;-63
2022/06/20 13:56:18;;;;;;;;;;;21.80;41.30;;;;;;5012212;28;20028;-63
2022/06/20 13:58:48;;;;;;;;;;;21.80;41.40;;;;;;5035311;28;20090;-63
2022/06/20 14:01:16;;;;;;;;;;;21.80;41.40;;;;;;5008920;28;19976;-63
2022/06/20 14:03:46;;;;;;;;;;;21.80;41.50;;;;;;5005288;28;20087;-63
2022/06/20 14:06:15;;;;;;;;;;;21.80;41.50;;;;;;5011072;28;19979;-66
2022/06/20 14:08:44;;;;;;;;;;;21.80;41.50;;;;;;5010164;28;19951;-64
2022/06/20 14:11:12;;;;;;;;;;;21.80;41.30;;;;;;5011966;28;20058;-62
2022/06/20 14:13:39;;;;;;;;;;;21.80;41.80;;;;;;5029777;28;19932;-63
2022/06/20 14:16:17;;;;;;;;;;;21.90;41.20;;;;;;5011345;28;19936;-64
2022/06/20 14:18:46;;;;;;;;;;;23.10;40.60;;;;;;5009482;28;19990;-63
2022/06/20 14:21:14;;;;;;;;;;;23.80;39.80;;;;;;5009362;28;19925;-61
2022/06/20 14:23:41;;;;;;;;;;;24.80;38.40;;;;;;5011295;28;20280;-60
2022/06/20 14:26:08;;;;;;;;;;;25.80;36.90;;;;;;5029907;28;19968;-63
2022/06/20 14:28:36;;;;;;;;;;;26.60;35.50;;;;;;5028754;28;19940;-66
2022/06/20 14:31:18;;;;;;;;;;;27.10;34.70;;;;;;5008806;28;19945;-64
2022/06/20 14:33:46;;;;;;;;;;;27.70;33.90;;;;;;5028730;28;20028;-63
2022/06/20 14:36:18;;;;;;;;;;;28.30;33.00;;;;;;5029676;28;19999;-63
2022/06/20 14:38:46;;;;;;;;;;;29.10;31.70;;;;;;5026553;28;20358;-63
2022/06/20 14:43:54;;;;;;;;;;;30.40;29.90;;;;;;5041899;28;20020;-62
2022/06/20 14:46:23;;;;;;;;;;;31.00;29.20;;;;;;5007757;28;19935;-63